Overview Statistics Trail Chart Weather Telemetry Raw packets
 

This is the latest recevied weather packets stored in our database for station/object N4ASP-13. If no packets are shown the sender has not sent any weather packets the latest 10 day(s).

<< 2 3 4 5 6 7 8 >>
Time Temp. Humidity Pressure Rain* Wind** Luminosity Snow
1788631532 25.56° C 66% 1014.5 hPa 0 mm - 207 W/m² -
1788631472 25.56° C 65% 1014.4 hPa 0 mm - 213 W/m² -
1788631447 25.56° C 66% 1014.5 hPa 0 mm - 214 W/m² -
1788631351 25.56° C 65% 1014.7 hPa 0 mm - 214 W/m² -
1788631291 25.56° C 65% 1014.8 hPa 0 mm - 214 W/m² -
1788631231 25.56° C 66% 1015 hPa 0 mm - 213 W/m² -
1788631172 26.11° C 65% 1015.1 hPa 0 mm - 213 W/m² -
1788631112 26.11° C 66% 1015.3 hPa 0 mm - 214 W/m² -
1788631053 26.11° C 65% 1015.3 hPa 0 mm - 216 W/m² -
1788630993 26.11° C 65% 1015.4 hPa 0 mm - 218 W/m² -
1788630931 26.11° C 65% 1015.4 hPa 0 mm - 218 W/m² -
1788630872 26.11° C 64% 1015.5 hPa 0 mm - 214 W/m² -
1788630812 26.11° C 64% 1015.6 hPa 0 mm - 211 W/m² -
1788630752 26.11° C 64% 1015.8 hPa 0 mm - 199 W/m² -
1788630691 26.11° C 65% 1015.9 hPa 0 mm - 197 W/m² -
1788630571 26.11° C 65% 1016.1 hPa 0 mm - 199 W/m² -
1788630512 26.67° C 65% 1016 hPa 0 mm - 204 W/m² -
1788630453 26.67° C 65% 1016 hPa 0 mm - 209 W/m² -
1788630393 26.67° C 65% 1016 hPa 0 mm - 214 W/m² -
1788630333 26.67° C 65% 1016.1 hPa 0 mm - 214 W/m² -
1788630271 26.67° C 64% 1016.1 hPa 0 mm - 213 W/m² -
1788630213 26.67° C 65% 1016.2 hPa 0 mm - 211 W/m² -
1788630151 26.67° C 65% 1016.2 hPa 0 mm - 209 W/m² -
1788630092 26.67° C 65% 1016.3 hPa 0 mm - 206 W/m² -
1788630033 26.67° C 65% 1016.4 hPa 0 mm - 200 W/m² -

* Rain latest hour (hover to see other rain measurements)
** Current wind speed in m/s (hover to see current wind gust speed)